Terminal Aerodrome Forecast
Issued by NWS

Current Version | Previous Version | Text Only | Print | Product List | Glossary On
Versions: 1 2 3 4 5 6 7 8 9 10 11 12
000
FTUS45 KABQ 221737
TAFFMN
TAF
KFMN 221737Z 2218/2318 29010KT P6SM SCT150
     FM222000 28020G30KT P6SM FEW150
     FM230200 32009KT P6SM SKC
     FM231700 28012KT P6SM SKC=

USA.gov is the U.S. government's official web portal to all federal, state and local government web resources and services.